地図

経路データ

SID SEASON NUMBER BASIN SUBBASIN NAME ISO_TIME NATURE LAT LON WMO_WIND WMO_PRES WMO_AGENCY TRACK_TYPE DIST2LAND LANDFALL IFLAG USA_AGENCY USA_ATCF_ID USA_LAT USA_LON USA_RECORD USA_STATUS USA_WIND USA_PRES USA_SSHS USA_R34_NE USA_R34_SE USA_R34_SW USA_R34_NW USA_R50_NE USA_R50_SE USA_R50_SW USA_R50_NW USA_R64_NE USA_R64_SE USA_R64_SW USA_R64_NW USA_POCI USA_ROCI USA_RMW USA_EYE TOKYO_LAT TOKYO_LON TOKYO_GRADE TOKYO_WIND TOKYO_PRES TOKYO_R50_DIR TOKYO_R50_LONG TOKYO_R50_SHORT TOKYO_R30_DIR TOKYO_R30_LONG TOKYO_R30_SHORT TOKYO_LAND CMA_LAT CMA_LON CMA_CAT CMA_WIND CMA_PRES HKO_LAT HKO_LON HKO_CAT HKO_WIND HKO_PRES NEWDELHI_LAT NEWDELHI_LON NEWDELHI_GRADE NEWDELHI_WIND NEWDELHI_PRES NEWDELHI_CI NEWDELHI_DP NEWDELHI_POCI REUNION_LAT REUNION_LON REUNION_TYPE REUNION_WIND REUNION_PRES REUNION_TNUM REUNION_CI REUNION_RMW REUNION_R34_NE REUNION_R34_SE REUNION_R34_SW REUNION_R34_NW REUNION_R50_NE REUNION_R50_SE REUNION_R50_SW REUNION_R50_NW REUNION_R64_NE REUNION_R64_SE REUNION_R64_SW REUNION_R64_NW BOM_LAT BOM_LON BOM_TYPE BOM_WIND BOM_PRES BOM_TNUM BOM_CI BOM_RMW BOM_R34_NE BOM_R34_SE BOM_R34_SW BOM_R34_NW BOM_R50_NE BOM_R50_SE BOM_R50_SW BOM_R50_NW BOM_R64_NE BOM_R64_SE BOM_R64_SW BOM_R64_NW BOM_ROCI BOM_POCI BOM_EYE BOM_POS_METHOD BOM_PRES_METHOD NADI_LAT NADI_LON NADI_CAT NADI_WIND NADI_PRES WELLINGTON_LAT WELLINGTON_LON WELLINGTON_WIND WELLINGTON_PRES DS824_LAT DS824_LON DS824_STAGE DS824_WIND DS824_PRES TD9636_LAT TD9636_LON TD9636_STAGE TD9636_WIND TD9636_PRES TD9635_LAT TD9635_LON TD9635_WIND TD9635_PRES TD9635_ROCI NEUMANN_LAT NEUMANN_LON NEUMANN_CLASS NEUMANN_WIND NEUMANN_PRES MLC_LAT MLC_LON MLC_CLASS MLC_WIND MLC_PRES USA_GUST BOM_GUST BOM_GUST_PER REUNION_GUST REUNION_GUST_PER USA_SEAHGT USA_SEARAD_NE USA_SEARAD_SE USA_SEARAD_SW USA_SEARAD_NW STORM_SPEED STORM_DIR
1964344N06153 1964 118 WP MM OPAL 1964-12-08 18:00:00 TS 5.85000 153.450 main 1006 986 O__O_____O_O__ jtwc_wp WP391964 5.80000 153.400 30 -1 6.00000 153.600 TD 25 987 5.80000 153.400 TC 30 5.80000 153.400 30 990 240 18 279
1964344N06153 1964 118 WP MM OPAL 1964-12-08 21:00:00 TS 5.99414 152.553 main 993 987 P__P_____P_P__ WP391964 5.97027 152.595 37 0 6.06574 152.425 TD 32 986 5.97027 152.595 TC 37 5.97027 152.595 37 988 300 16 280
1964344N06153 1964 118 WP MM OPAL 1964-12-09 00:00:00 TS 6.12667 151.840 1004 tokyo main 991 990 OOOO_____OOO__ jtwc_wp WP391964 6.10000 151.800 45 0 6.30000 152.700 2 1004 0 0 0 6.30000 152.700 1 29 1004 6.10000 151.400 TS 40 986 6.10000 151.800 TC 45 6.10000 151.800 2 45 6.10000 151.800 45 987 360 15 278
1964344N06153 1964 118 WP MM OPAL 1964-12-09 03:00:00 TS 6.19646 151.070 main 997 988 PPPP_____PPP__ WP391964 6.16481 151.015 55 0 6.42284 151.758 2 1002 0 0 6.42036 151.755 1 33 1002 6.09208 150.612 TS 52 983 6.16481 151.015 TC 55 6.14480 150.944 2 52 6.16481 151.015 55 986 360 16 275
1964344N06153 1964 118 WP MM OPAL 1964-12-09 06:00:00 TS 6.25494 150.283 1000 tokyo main 994 969 OOOO_____OPO__ jtwc_wp WP391964 6.20000 150.200 65 1 6.50000 150.800 2 1000 0 0 0 6.50000 150.800 2 38 1000 6.10000 149.900 T 65 981 6.20000 150.200 TC 65 6.19114 150.090 2 60 6.20000 150.200 65 985 360 17 274
1964344N06153 1964 118 WP MM OPAL 1964-12-09 09:00:00 TS 6.30662 149.406 main 967 950 PPPP_____PPP__ WP391964 6.23496 149.307 70 1 6.50730 149.815 2 999 0 0 6.51475 149.822 2 43 997 6.17754 149.043 T 67 978 6.23496 149.307 TC 70 6.24190 149.241 2 67 6.23496 149.307 70 984 360 18 273
1964344N06153 1964 118 WP MM OPAL 1964-12-09 12:00:00 TS 6.35714 148.486 998 tokyo main 960 952 OOOO_____OOO__ jtwc_wp WP391964 6.30000 148.400 75 1 6.50000 148.800 2 998 0 0 0 6.50000 148.800 3 48 995 6.30000 148.200 T 70 975 6.30000 148.400 TC 75 6.30000 148.400 3 75 6.30000 148.400 75 983 360 18 275
1964344N06153 1964 118 WP MM OPAL 1964-12-09 15:00:00 TS 6.45441 147.580 main 963 963 PPPP_____PPP__ WP391964 6.44986 147.535 77 1 6.53500 147.728 2 994 0 0 6.48512 147.670 3 53 992 6.44224 147.492 T 70 975 6.44986 147.535 TC 77 6.36893 147.568 3 77 6.44986 147.535 77 982 360 18 277
1964344N06153 1964 118 WP MM OPAL 1964-12-09 18:00:00 TS 6.56491 146.706 990 tokyo main 974 974 OOOO_____OPO__ jtwc_wp WP391964 6.60000 146.700 80 1 6.60000 146.700 9 990 0 0 0 6.50000 146.600 3 58 990 6.60000 146.800 T 70 975 6.60000 146.700 TC 80 6.45440 146.742 3 80 6.60000 146.700 80 982 360 17 276
1964344N06153 1964 118 WP MM OPAL 1964-12-09 21:00:00 TS 6.63877 145.885 main 978 978 PPPP_____PPP__ WP391964 6.63480 145.900 82 1 6.68472 145.812 9 987 0 0 6.56213 145.755 3 63 985 6.75748 146.008 T 72 980 6.63480 145.900 TC 82 6.56268 145.921 3 82 6.63480 145.900 82 983 360 16 276
1964344N06153 1964 118 WP MM OPAL 1964-12-10 00:00:00 TS 6.74286 145.086 985 tokyo main 1000 1000 OOOO_____OOO__ jtwc_wp WP391964 6.70000 145.100 85 2 6.80000 145.000 9 985 0 0 0 6.70000 145.000 4 68 981 6.90000 145.200 T 75 986 6.70000 145.100 TC 85 6.70000 145.100 4 85 6.70000 145.100 85 984 360 16 280
1964344N06153 1964 118 WP MM OPAL 1964-12-10 03:00:00 TS 6.93577 144.270 main 1040 1040 PPPP_____PPP__ WP391964 6.93493 144.250 90 2 6.92733 144.192 9 982 0 0 6.94233 144.208 4 77 979 6.98469 144.472 T 80 983 6.93493 144.250 TC 90 6.89123 144.267 4 88 6.93493 144.250 90 981 390 17 284
1964344N06153 1964 118 WP MM OPAL 1964-12-10 06:00:00 TS 7.15815 143.448 980 tokyo main 1101 1101 OOOO_____OPO__ jtwc_wp WP391964 7.20000 143.400 95 2 7.10000 143.400 9 980 0 0 0 7.20000 143.400 5 87 978 7.10000 143.700 ST 85 980 7.20000 143.400 TC 95 7.10707 143.436 4 92 7.20000 143.400 95 978 420 17 285
1964344N06153 1964 118 WP MM OPAL 1964-12-10 09:00:00 TS 7.36374 142.615 main 1118 1095 PPPP_____PPP__ WP391964 7.37977 142.600 97 3 7.36497 142.578 9 977 0 0 7.37238 142.557 5 92 975 7.35011 142.758 ST 87 975 7.37977 142.600 TC 97 7.31937 142.611 4 96 7.37977 142.600 97 974 390 17 283
1964344N06153 1964 118 WP MM OPAL 1964-12-10 12:00:00 TS 7.52857 141.786 975 tokyo main 1095 1076 OOOO_____OOO__ jtwc_wp WP391964 7.50000 141.800 100 3 7.60000 141.800 9 975 0 0 0 7.50000 141.700 5 97 972 7.60000 141.800 ST 90 970 7.50000 141.800 TC 100 7.50000 141.800 4 100 7.50000 141.800 100 970 360 16 279
1964344N06153 1964 118 WP MM OPAL 1964-12-10 15:00:00 TS 7.61200 140.973 main 1076 1059 PPPP_____PPP__ WP391964 7.55750 140.935 102 3 7.67197 141.187 9 975 0 0 7.60738 140.842 5 101 968 7.72972 140.977 ST 92 967 7.55750 140.935 TC 102 7.60241 140.998 4 102 7.55750 140.935 102 966 330 16 275
1964344N06153 1964 118 WP MM OPAL 1964-12-10 18:00:00 TS 7.66743 140.173 975 tokyo main 1065 1028 OOOO_____OPO__ jtwc_wp WP391964 7.60000 140.100 105 3 7.70000 140.500 9 975 0 0 0 7.70000 140.000 6 106 965 7.80000 140.200 ST 95 965 7.60000 140.100 TC 105 7.67201 140.212 4 105 7.60000 140.100 105 962 300 16 275
1964344N06153 1964 118 WP MM OPAL 1964-12-10 21:00:00 TS 7.74680 139.373 main 1028 1009 PPPP_____PPP__ WP391964 7.68473 139.385 107 3 7.80047 139.458 9 975 0 0 7.79992 139.170 6 111 961 7.84243 139.385 ST 97 960 7.68473 139.385 TC 107 7.73060 139.445 4 107 7.68473 139.385 107 958 300 16 276
1964344N06153 1964 118 WP MM OPAL 1964-12-11 00:00:00 TS 7.84286 138.600 975 tokyo main 1009 996 OOOO_____OOO__ jtwc_wp WP391964 7.80000 138.700 110 3 7.90000 138.400 9 975 0 0 0 7.90000 138.400 6 116 958 7.90000 138.600 SuperT 100 955 7.80000 138.700 TC 110 7.80000 138.700 4 110 7.80000 138.700 110 955 300 15 278
1964344N06153 1964 118 WP MM OPAL 1964-12-11 03:00:00 TS 7.94873 137.859 main 996 992 PPPP_____PPP__ WP391964 7.94998 137.943 115 4 7.86715 137.632 9 967 0 0 7.99232 137.720 6 121 950 8.04984 137.878 SuperT 102 947 7.94998 137.943 TC 115 7.88188 137.958 4 115 7.94998 137.943 115 950 300 14 280
1964344N06153 1964 118 WP MM OPAL 1964-12-11 06:00:00 TS 8.08317 137.163 960 tokyo main 1001 996 OOOO_____OPO__ jtwc_wp WP391964 8.10000 137.200 120 4 8.00000 137.000 9 960 0 0 0 8.10000 137.100 6 126 942 8.20000 137.200 SuperT 105 940 8.10000 137.200 TC 120 7.98216 137.240 4 120 8.10000 137.200 120 945 300 14 283
1964344N06153 1964 118 WP MM OPAL 1964-12-11 09:00:00 TS 8.25367 136.500 main 1013 1010 PPPP_____PPP__ WP391964 8.19239 136.520 125 4 8.62734 136.386 9 950 0 0 8.23491 136.485 6 135 935 8.21996 136.520 SuperT 110 932 8.19239 136.520 TC 125 8.11635 136.552 4 125 8.19239 136.520 125 937 300 13 286
1964344N06153 1964 118 WP MM OPAL 1964-12-11 12:00:00 TS 8.45714 135.886 940 tokyo main 1028 974 OOOO_____OOO__ jtwc_wp WP391964 8.30000 135.900 130 4 9.30000 135.800 9 940 0 0 0 8.40000 135.900 6 145 928 8.30000 135.900 SuperT 115 925 8.30000 135.900 TC 130 8.30000 135.900 4 130 8.30000 135.900 130 929 300 12 290
1964344N06153 1964 118 WP MM OPAL 1964-12-11 15:00:00 TS 8.66920 135.322 main 964 912 PPPP_____PPP__ WP391964 8.45483 135.342 135 4 9.61241 135.192 9 930 0 0 8.56989 135.342 6 150 922 8.60478 135.393 SuperT 120 920 8.45483 135.342 TC 135 8.53283 135.297 4 136 8.45483 135.342 135 921 300 12 293
1964344N06153 1964 118 WP MM OPAL 1964-12-11 18:00:00 TS 8.91667 134.775 920 tokyo main 912 853 OOOO_____OPO__ jtwc_wp WP391964 8.70000 134.800 140 5 9.70000 134.600 9 920 0 0 0 8.80000 134.800 6 155 916 9.00000 134.900 SuperT 125 915 8.70000 134.800 TC 140 8.81668 134.727 4 142 8.70000 134.800 140 914 300 12 295
1964344N06153 1964 118 WP MM OPAL 1964-12-11 21:00:00 TS 9.19128 134.209 main 853 796 PPPP_____PPP__ WP391964 9.06241 134.215 147 5 9.55484 134.049 9 910 0 0 9.11231 134.272 6 160 910 9.34239 134.330 SuperT 130 910 9.06241 134.215 TC 147 9.14222 134.169 4 148 9.06241 134.215 147 909 300 13 298
1964344N06153 1964 118 WP MM OPAL 1964-12-12 00:00:00 TS 9.52857 133.614 900 tokyo main 796 745 OOOO_____OOO__ jtwc_wp WP391964 9.50000 133.600 155 5 9.50000 133.500 9 900 0 0 0 9.50000 133.700 6 165 904 9.70000 133.700 SuperT 135 905 9.50000 133.600 TC 155 9.50000 133.600 4 155 9.50000 133.600 155 905 300 15 302
1964344N06153 1964 118 WP MM OPAL 1964-12-12 03:00:00 TS 9.96803 132.967 main 747 682 PPPP_____PPP__ WP391964 9.95746 132.950 157 5 9.95481 132.930 9 900 0 0 9.95007 133.008 6 165 904 10.1075 133.000 SuperT 137 905 9.95746 132.950 TC 157 9.89144 132.982 4 157 9.95746 132.950 157 908 300 16 305
1964344N06153 1964 118 WP MM OPAL 1964-12-12 06:00:00 TS 10.4153 132.307 900 tokyo main 682 625 OOOO_____OPO__ jtwc_wp WP391964 10.4000 132.300 160 5 10.5000 132.300 9 900 0 0 0 10.4000 132.300 6 165 905 10.5000 132.300 SuperT 140 905 10.4000 132.300 TC 160 10.3074 132.350 4 160 10.4000 132.300 160 911 300 15 302
1964344N06153 1964 118 WP MM OPAL 1964-12-12 09:00:00 TS 10.7563 131.670 main 628 573 PPPP_____PPP__ WP391964 10.7648 131.692 162 5 10.7077 131.535 9 900 0 0 10.7648 131.677 6 160 907 10.8073 131.685 SuperT 142 905 10.7648 131.692 TC 162 10.7196 131.719 4 162 10.7648 131.692 162 914 300 14 298
1964344N06153 1964 118 WP MM OPAL 1964-12-12 12:00:00 TS 11.0714 131.057 900 tokyo main 577 514 OOOO_____OOO__ jtwc_wp WP391964 11.1000 131.100 165 5 10.9000 130.800 9 900 0 0 0 11.1000 131.100 6 155 910 11.1000 131.100 SuperT 145 905 11.1000 131.100 TC 165 11.1000 131.100 4 165 11.1000 131.100 165 918 300 14 300
1964344N06153 1964 118 WP MM OPAL 1964-12-12 15:00:00 TS 11.4423 130.469 main 514 456 PPPP_____PPP__ WP391964 11.4724 130.493 167 5 11.3347 130.270 9 900 0 0 11.4649 130.542 6 155 913 11.4650 130.485 SuperT 147 902 11.4724 130.493 TC 167 11.4145 130.510 4 166 11.4724 130.493 167 921 330 13 302
1964344N06153 1964 118 WP MM OPAL 1964-12-12 18:00:00 TS 11.7849 129.905 900 tokyo main 456 408 OOOO_____OPO__ jtwc_wp WP391964 11.8000 129.900 170 5 11.8000 129.800 9 900 0 0 0 11.8000 130.000 6 155 917 11.8000 129.900 SuperT 150 900 11.8000 129.900 TC 170 11.6943 129.934 4 167 11.8000 129.900 170 925 360 12 298
1964344N06153 1964 118 WP MM OPAL 1964-12-12 21:00:00 TS 12.0283 129.362 main 408 353 PPPP_____PPP__ WP391964 12.0148 129.350 170 5 12.1374 129.257 9 905 0 0 12.0573 129.457 6 150 920 12.0072 129.407 SuperT 150 900 12.0148 129.350 TC 170 11.9520 129.366 4 168 12.0148 129.350 170 928 390 12 293
1964344N06153 1964 118 WP MM OPAL 1964-12-13 00:00:00 TS 12.2429 128.814 910 tokyo main 353 306 OOOO_____OOO__ jtwc_wp WP391964 12.2000 128.800 170 5 12.4000 128.700 9 910 0 0 0 12.3000 128.900 6 145 924 12.2000 128.900 SuperT 150 900 12.2000 128.800 TC 170 12.2000 128.800 4 170 12.2000 128.800 170 931 420 12 293
1964344N06153 1964 118 WP MM OPAL 1964-12-13 03:00:00 TS 12.4977 128.222 main 295 245 PPPP_____PPP__ WP391964 12.4425 128.200 170 5 12.5923 128.157 9 915 0 0 12.6074 128.315 6 140 927 12.5000 128.265 SuperT 150 902 12.4425 128.200 TC 170 12.4569 128.217 4 170 12.4425 128.200 170 934 420 13 294
1964344N06153 1964 118 WP MM OPAL 1964-12-13 06:00:00 TS 12.7582 127.619 920 tokyo main 237 195 OOOO_____OPO__ jtwc_wp WP391964 12.7000 127.600 170 5 12.8000 127.600 9 920 0 0 0 12.9000 127.700 6 136 931 12.8000 127.600 SuperT 150 905 12.7000 127.600 TC 170 12.7072 127.635 4 170 12.7000 127.600 170 938 420 13 294
1964344N06153 1964 118 WP MM OPAL 1964-12-13 09:00:00 TS 13.0076 127.032 main 185 155 PPPP_____PPP__ WP391964 12.9498 127.042 170 5 13.1500 127.000 9 925 0 0 13.1000 127.042 6 136 934 12.9998 126.992 SuperT 150 905 12.9498 127.042 TC 170 12.9538 127.060 4 170 12.9498 127.042 170 941 420 12 294
1964344N06153 1964 118 WP MM OPAL 1964-12-13 12:00:00 TS 13.2571 126.457 930 tokyo main 164 132 OOOO_____OOO__ jtwc_wp WP391964 13.2000 126.500 170 5 13.5000 126.400 9 930 0 0 0 13.3000 126.400 6 136 937 13.2000 126.400 SuperT 150 905 13.2000 126.500 TC 170 13.2000 126.500 4 170 13.2000 126.500 170 945 420 12 295
1964344N06153 1964 118 WP MM OPAL 1964-12-13 15:00:00 TS 13.5184 125.893 main 135 108 PPPP_____PPP__ WP391964 13.4499 125.942 170 5 13.7147 125.857 9 935 0 0 13.6073 125.828 6 131 940 13.5075 125.785 SuperT 150 917 13.4499 125.942 TC 170 13.4496 125.956 4 170 13.4499 125.942 170 948 390 12 295
1964344N06153 1964 118 WP MM OPAL 1964-12-13 18:00:00 TS 13.7713 125.347 940 tokyo main 97 44 OOOO_____OPO__ jtwc_wp WP391964 13.7000 125.400 170 5 13.9000 125.300 9 940 0 0 0 13.9000 125.300 6 126 944 13.8000 125.200 SuperT 150 930 13.7000 125.400 TC 170 13.6995 125.427 4 170 13.7000 125.400 170 951 360 12 294
1964344N06153 1964 118 WP MM OPAL 1964-12-13 21:00:00 TS 13.9916 124.816 main 44 15 PPPP_____PPP__ WP391964 13.9423 124.900 170 5 14.1501 124.643 9 950 0 0 14.0574 124.785 6 116 947 13.9573 124.677 SuperT 150 940 13.9423 124.900 TC 170 13.9496 124.909 4 170 13.9423 124.900 170 954 360 11 294
1964344N06153 1964 118 WP MM OPAL 1964-12-14 00:00:00 TS 14.2143 124.300 960 tokyo main 22 22 OOOO_____OOO__ jtwc_wp WP391964 14.2000 124.400 170 5 14.4000 124.000 9 960 0 0 0 14.2000 124.300 6 106 951 14.1000 124.200 SuperT 150 950 14.2000 124.400 TC 170 14.2000 124.400 4 170 14.2000 124.400 170 957 360 11 296
1964344N06153 1964 118 WP MM OPAL 1964-12-14 03:00:00 TS 14.4837 123.777 main 64 64 PPPP_____PPP__ WP391964 14.5075 123.843 152 5 14.5999 123.440 9 960 0 0 14.4424 123.835 6 96 955 14.3348 123.750 SuperT 135 955 14.5075 123.843 TC 152 14.4862 123.889 4 152 14.5075 123.843 152 958 360 11 299
1964344N06153 1964 118 WP MM OPAL 1964-12-14 06:00:00 TS 14.7524 123.284 960 tokyo main 79 70 OOOO_____OPO__ jtwc_wp WP391964 14.8000 123.300 135 4 14.8000 123.000 9 960 0 0 0 14.7000 123.400 5 87 960 14.6000 123.300 SuperT 120 960 14.8000 123.300 TC 135 14.7671 123.386 4 135 14.8000 123.300 135 960 360 10 299
1964344N06153 1964 118 WP MM OPAL 1964-12-14 09:00:00 TS 14.9862 122.852 main 89 89 PPPP_____PPP__ WP391964 15.0223 122.842 117 4 15.0723 122.727 9 962 0 0 14.8995 123.045 5 82 962 14.8501 122.778 SuperT 105 962 15.0223 122.842 TC 117 15.0144 122.889 4 117 15.0223 122.842 117 962 360 9 298
1964344N06153 1964 118 WP MM OPAL 1964-12-14 12:00:00 TS 15.1857 122.429 965 tokyo main 93 54 OOOO_____OOO__ jtwc_wp WP391964 15.2000 122.400 100 3 15.3000 122.500 9 965 0 0 0 15.1000 122.600 4 77 965 15.1000 122.300 ST 90 965 15.2000 122.400 TC 100 15.2000 122.400 4 100 15.2000 122.400 100 965 360 10 294
1964344N06153 1964 118 WP MM OPAL 1964-12-14 15:00:00 TS 15.3821 121.945 main 44 0 PPPP_____PPP__ WP391964 15.3950 121.900 87 2 15.3800 122.165 9 972 0 0 15.4105 121.866 4 72 972 15.4092 122.060 ST 77 970 15.3950 121.900 TC 87 15.2902 121.824 4 86 15.3950 121.900 87 968 360 10 288
1964344N06153 1964 118 WP MM OPAL 1964-12-14 18:00:00 TS 15.4883 121.438 980 tokyo main 0 0 OOOO_____OPO__ jtwc_wp WP391964 15.5000 121.400 75 1 15.4000 121.800 9 980 0 0 0 15.6000 121.100 4 68 980 15.6000 121.700 T 65 975 15.5000 121.400 TC 75 15.3182 121.269 4 72 15.5000 121.400 75 972 360 10 274
1964344N06153 1964 118 WP MM OPAL 1964-12-14 21:00:00 TS 15.4523 120.860 main 0 0 PPPP_____PPP__ WP391964 15.4601 120.852 60 0 15.4575 121.443 9 985 0 0 15.4824 120.457 4 63 985 15.5340 120.762 T 52 980 15.4601 120.852 TC 60 15.3120 120.805 4 58 15.4601 120.852 60 976 330 10 260
1964344N06153 1964 118 WP MM OPAL 1964-12-15 00:00:00 TS 15.3143 120.443 990 tokyo main 0 0 OOOO_____OOO__ jtwc_wp WP391964 15.3000 120.500 45 0 15.5000 121.100 9 990 0 0 0 15.2000 120.100 3 58 990 15.3000 119.900 TS 40 985 15.3000 120.500 TC 45 15.3000 120.500 2 45 15.3000 120.500 45 980 300 6 228
1964344N06153 1964 118 WP MM OPAL 1964-12-15 03:00:00 TS 15.0641 120.409 main 0 0 PPPP_____PPP__ WP391964 14.9899 120.575 42 0 15.4550 120.747 9 990 0 0 14.8175 120.218 3 53 990 14.9469 119.693 TS 37 987 14.9899 120.575 TC 42 15.2595 120.475 2 43 14.9899 120.575 42 983 300 4 166
1964344N06153 1964 118 WP MM OPAL 1964-12-15 06:00:00 TS 14.9185 120.543 990 tokyo main 0 0 OOOO_____OPO__ jtwc_wp WP391964 14.8000 120.800 40 0 15.5000 120.500 9 990 0 0 0 14.6000 120.500 3 48 990 14.7000 119.800 TS 35 990 14.8000 120.800 TC 40 15.2296 120.602 2 42 14.8000 120.800 40 987 300 2 79
1964344N06153 1964 118 WP MM OPAL 1964-12-15 09:00:00 TS 15.1071 120.643 main 0 0 PPPP_____PPP__ WP391964 15.0024 120.910 40 0 15.8049 120.470 9 990 0 0 14.8675 120.580 3 43 992 14.8101 119.942 TS 35 990 15.0024 120.910 TC 40 15.2598 120.778 2 41 15.0024 120.910 40 988 300 6 14
1964344N06153 1964 118 WP MM OPAL 1964-12-15 12:00:00 TS 15.4571 120.686 990 tokyo main 0 0 OOOO_____OOO__ jtwc_wp WP391964 15.4000 120.900 40 0 16.2000 120.500 9 990 0 0 0 15.3000 120.600 2 38 995 15.1000 120.100 TS 35 990 15.4000 120.900 TC 40 15.4000 120.900 2 40 15.4000 120.900 40 990 300 7 355
1964344N06153 1964 118 WP MM OPAL 1964-12-15 15:00:00 TS 15.7790 120.570 main 0 0 PPPP_____PPP__ WP391964 15.7776 120.665 40 0 16.5000 120.393 9 990 0 0 15.5500 120.608 2 38 995 15.3850 120.108 TS 35 990 15.7776 120.665 TC 40 15.6852 120.889 2 38 15.7776 120.665 40 991 300 7 339
1964344N06153 1964 118 WP MM OPAL 1964-12-15 18:00:00 TS 16.1363 120.412 990 tokyo main 0 0 OOOO_____OPO__ jtwc_wp WP391964 16.2000 120.400 40 0 16.8000 120.300 9 990 0 0 0 15.8000 120.600 2 38 995 15.7000 120.100 TS 35 990 16.2000 120.400 TC 40 16.0904 120.759 2 37 16.2000 120.400 40 993 300 7 343
1964344N06153 1964 118 WP MM OPAL 1964-12-15 21:00:00 TS 16.4855 120.351 main 0 0 PPPP_____PPP__ WP391964 16.6449 120.295 37 0 17.1574 120.290 9 994 0 0 16.1050 120.593 2 38 997 15.9100 120.155 TS 32 993 16.6449 120.295 TC 37 16.5754 120.550 2 36 16.6449 120.295 37 994 270 7 0
1964344N06153 1964 118 WP MM OPAL 1964-12-16 00:00:00 TS 16.8500 120.400 998 tokyo main 10 0 OOOO_____OOO__ jtwc_wp WP391964 17.1000 120.300 35 0 17.5000 120.400 9 998 0 0 0 16.5000 120.600 2 38 1000 16.3000 120.300 TD 30 996 17.1000 120.300 TC 35 17.1000 120.300 2 35 17.1000 120.300 35 996 240 8 17
1964344N06153 1964 118 WP MM OPAL 1964-12-16 03:00:00 TS 17.2758 120.605 main 0 0 _PPP__________ WP391964 -1 17.7124 120.633 9 998 0 0 16.9899 120.605 2 38 1000 17.1251 120.577 TD 27 997 TC 2 11 23
1964344N06153 1964 118 WP MM OPAL 1964-12-16 06:00:00 TS 17.9000 120.867 998 tokyo main 0 0 _OOO__________ -1 18.0000 121.000 9 998 0 0 0 17.6000 120.700 2 38 1000 18.1000 120.900 TD 25 998 2 14 22
1964344N06153 1964 118 WP MM OPAL 1964-12-16 09:00:00 TS 18.5915 121.162 main 11 11 _PPP__________ -1 18.5776 121.469 9 998 0 0 18.2823 120.911 2 38 1000 18.9146 121.106 TD 25 998 2 16 25
1964344N06153 1964 118 WP MM OPAL 1964-12-16 12:00:00 TS 19.3333 121.567 998 tokyo main 91 91 _OOO__________ -1 19.2000 122.000 9 998 0 0 0 19.1000 121.300 2 38 1000 19.7000 121.400 TD 25 998 17 30
1964344N06153 1964 118 WP MM OPAL 1964-12-16 15:00:00 TS 20.0813 122.075 main 190 190 _PPP__________ -1 19.5922 122.486 9 999 0 0 20.0848 121.860 2 38 1000 20.5668 121.880 TD 25 998 18 37
1964344N06153 1964 118 WP MM OPAL 1964-12-16 18:00:00 TS 20.8000 122.733 1000 tokyo main 223 223 _OOO__________ -1 20.0000 123.000 9 1000 0 0 0 21.1000 122.600 2 38 1000 21.3000 122.600 TD 25 998 18 44
1964344N06153 1964 118 WP MM OPAL 1964-12-16 21:00:00 TS 21.3794 123.425 main 264 264 _PPP__________ -1 20.5274 123.432 9 1000 0 0 22.0085 123.389 2 38 1000 21.6022 123.454 TD 25 999 20 52
1964344N06153 1964 118 WP MM OPAL 1964-12-17 00:00:00 MX 22.0364 124.409 1000 tokyo main 331 331 _OOO__________ -1 21.3000 124.200 6 1000 0 0 0 22.8000 124.400 2 38 1000 22.0000 124.700 TD 25 1000 27 55
1964344N06153 1964 118 WP MM OPAL 1964-12-17 03:00:00 MX 22.9506 125.844 main 430 430 _PPP__________ -1 22.5021 125.687 6 998 0 0 23.4067 125.683 2 38 1000 22.9353 126.479 TD 25 1000 34 57
1964344N06153 1964 118 WP MM OPAL 1964-12-17 06:00:00 MX 23.8889 127.489 996 tokyo main 569 569 _OOO__________ -1 23.7000 127.500 6 996 0 0 0 24.0000 127.200 2 38 1000 24.2000 128.600 TD 25 1000 33 60
1964344N06153 1964 118 WP MM OPAL 1964-12-17 09:00:00 MX 24.5870 128.955 main 707 636 _PP___________ -1 24.4895 129.122 6 997 0 0 24.6845 128.787 2 38 1000 TD 32 64
1964344N06153 1964 118 WP MM OPAL 1964-12-17 12:00:00 MX 25.3000 130.700 998 tokyo main 636 574 _OO___________ -1 25.0000 130.800 6 998 0 0 0 25.6000 130.600 2 38 1000 38 65
1964344N06153 1964 118 WP MM OPAL 1964-12-17 15:00:00 MX 26.1539 132.721 main 570 570 _PP___________ -1 25.2876 132.661 6 999 0 0 27.0202 132.781 2 38 1000 40 66
1964344N06153 1964 118 WP MM OPAL 1964-12-17 18:00:00 ET 26.9000 134.750 1000 tokyo main 600 600 _OO___________ -1 25.5000 134.500 6 1000 0 0 0 28.3000 135.000 9 38 1000 36 71
1964344N06153 1964 118 WP MM OPAL 1964-12-17 21:00:00 ET 27.3458 136.504 main 672 669 _PP___________ -1 25.8776 136.256 6 1000 0 0 28.8139 136.752 9 38 1000 31 76
1964344N06153 1964 118 WP MM OPAL 1964-12-18 00:00:00 ET 27.6500 138.100 1000 tokyo main 672 676 _OO___________ -1 26.3000 137.700 6 1000 0 0 0 29.0000 138.500 9 38 1000 28 78
1964344N06153 1964 118 WP MM OPAL 1964-12-18 03:00:00 ET 27.9496 139.635 main 712 708 _PP___________ -1 26.7067 138.648 6 1000 0 0 29.1925 140.622 9 33 1001 28 77
1964344N06153 1964 118 WP MM OPAL 1964-12-18 06:00:00 ET 28.2500 141.150 1000 tokyo main 738 _OO___________ -1 27.1000 139.300 6 1000 0 0 0 29.4000 143.000 9 29 1002 27 77

デジタル台風データ・検索

IBTrACS Databaseについて

本データベースは、米国NOAAが公開する1842年以降の世界の熱帯低気圧のベストトラックデータアーカイブInternational Best Track Archive for Climate Stewardship (IBTrACS)を、ウェブで閲覧しやすい形式に変換したものです。

最終更新日:2021-11-26